createdAt,value
2017-12-04T00:00:17.950Z,11.7
2017-12-04T00:02:17.663Z,12
2017-12-04T00:04:18.365Z,12.1
2017-12-04T00:06:17.109Z,11.7
2017-12-04T00:08:17.801Z,11.1
2017-12-04T00:10:17.517Z,12.4
2017-12-04T00:12:18.223Z,11.5
2017-12-04T00:14:17.935Z,12.7
2017-12-04T00:16:16.649Z,11.5
2017-12-04T00:18:17.344Z,13
2017-12-04T00:20:18.065Z,12
2017-12-04T00:22:17.791Z,11.1
2017-12-04T00:24:17.493Z,13.4
2017-12-04T00:26:17.208Z,12.4
2017-12-04T00:28:17.991Z,13.7
2017-12-04T00:30:17.656Z,13.1
2017-12-04T00:32:18.365Z,14.4
2017-12-04T00:34:18.071Z,13.8
2017-12-04T00:36:17.791Z,13.9
2017-12-04T00:38:17.518Z,14.7
2017-12-04T00:40:17.274Z,13.9
2017-12-04T00:42:17.962Z,12.9
2017-12-04T00:44:17.707Z,13.7
2017-12-04T00:46:17.419Z,15
2017-12-04T00:50:17.851Z,14.7
2017-12-04T00:52:17.571Z,13.8
2017-12-04T00:54:18.291Z,13.2
2017-12-04T00:56:17.059Z,13.9
2017-12-04T00:58:17.751Z,15
2017-12-04T01:00:17.475Z,14.3
2017-12-04T01:02:18.172Z,13.1
2017-12-04T01:04:17.900Z,13.7
2017-12-04T01:06:17.622Z,13.9
2017-12-04T01:08:18.362Z,14.1
2017-12-04T01:10:17.073Z,13.6
2017-12-04T01:12:17.828Z,14
2017-12-04T01:14:17.529Z,14
2017-12-04T01:16:18.250Z,13.9
2017-12-04T01:18:17.989Z,13.7
2017-12-04T01:20:17.718Z,13.1
2017-12-04T01:22:18.436Z,13.5
2017-12-04T01:24:18.167Z,14.1
2017-12-04T01:26:16.889Z,12.7
2017-12-04T01:28:17.605Z,11.4
2017-12-04T01:30:18.307Z,10.8
2017-12-04T01:32:18.039Z,11.5
2017-12-04T01:34:17.751Z,10.3
2017-12-04T01:36:17.488Z,9.6
2017-12-04T01:38:18.201Z,9.5
2017-12-04T01:40:17.006Z,8.7
2017-12-04T01:42:17.679Z,8.7
2017-12-04T01:44:18.410Z,9.1
2017-12-04T01:46:17.147Z,8.5
2017-12-04T01:48:17.872Z,8.5
2017-12-04T01:50:17.605Z,8.3
2017-12-04T01:52:18.356Z,8.8
2017-12-04T01:54:18.084Z,10.1
2017-12-04T01:56:16.826Z,8.2
2017-12-04T01:58:17.562Z,8
2017-12-04T02:00:18.314Z,9.4
2017-12-04T02:02:18.034Z,9.4
2017-12-04T02:04:17.796Z,11
2017-12-04T02:06:17.512Z,9.5
2017-12-04T02:08:18.250Z,10.6
2017-12-04T02:10:16.989Z,9.5
2017-12-04T02:12:17.711Z,10
2017-12-04T02:14:18.469Z,10
2017-12-04T02:16:17.194Z,10.6
2017-12-04T02:18:17.911Z,10.4
2017-12-04T02:20:17.641Z,10.6
2017-12-04T02:22:18.381Z,9.5
2017-12-04T02:24:18.105Z,10.3
2017-12-04T02:26:16.842Z,10.3
2017-12-04T02:28:17.586Z,10.8
2017-12-04T02:30:18.343Z,11.1
2017-12-04T02:32:18.059Z,11
2017-12-04T02:34:17.786Z,10.8
2017-12-04T02:36:17.530Z,10.5
2017-12-04T02:38:18.280Z,9.6
2017-12-04T02:40:17.032Z,9.6
2017-12-04T02:42:17.744Z,9.3
2017-12-04T02:44:17.513Z,8.7
2017-12-04T02:46:18.237Z,8.2
2017-12-04T02:48:17.993Z,8.1
2017-12-04T02:50:17.724Z,8.1
2017-12-04T02:52:17.443Z,8.6
2017-12-04T02:54:18.189Z,8.1
2017-12-04T02:56:20.907Z,8.3
2017-12-04T02:58:17.661Z,8.5
2017-12-04T03:00:18.396Z,9.6
2017-12-04T03:02:18.146Z,9
2017-12-04T03:04:17.876Z,9
2017-12-04T03:06:17.616Z,9.3
2017-12-04T03:08:18.345Z,9.6
2017-12-04T03:10:17.072Z,8.7
2017-12-04T03:12:17.795Z,9.3
2017-12-04T03:14:17.545Z,9.3
2017-12-04T03:16:17.263Z,9.8
2017-12-04T03:18:18.004Z,9.6
2017-12-04T03:20:17.755Z,8.4
2017-12-04T03:22:17.492Z,9.4
2017-12-04T03:24:18.217Z,8.8
2017-12-04T03:26:16.952Z,8.7
2017-12-04T03:28:17.722Z,9.3
2017-12-04T03:30:18.434Z,8.4
2017-12-04T03:32:18.189Z,8.9
2017-12-04T03:34:17.928Z,8.5
2017-12-04T03:36:17.659Z,8.4
2017-12-04T03:38:18.386Z,9.4
2017-12-04T03:40:17.165Z,8.6
2017-12-04T03:42:17.908Z,7.9
2017-12-04T03:44:17.652Z,7.9
2017-12-04T03:46:17.403Z,8.9
2017-12-04T03:48:18.112Z,7.5
2017-12-04T03:50:17.865Z,8.2
2017-12-04T03:52:17.603Z,8.2
2017-12-04T03:54:18.347Z,7.7
2017-12-04T03:56:17.090Z,6.9
2017-12-04T03:58:17.814Z,7.6
2017-12-04T04:00:17.545Z,7.8
2017-12-04T04:02:18.301Z,6.5
2017-12-04T04:04:18.025Z,7.1
2017-12-04T04:06:17.770Z,7.2
2017-12-04T04:08:17.483Z,6.8
2017-12-04T04:10:17.230Z,6.9
2017-12-04T04:12:17.972Z,6
2017-12-04T04:14:17.716Z,6.5
2017-12-04T04:16:17.451Z,5.6
2017-12-04T04:18:18.162Z,6
2017-12-04T04:20:17.926Z,6.2
2017-12-04T04:22:17.658Z,5.2
2017-12-04T04:24:18.378Z,5.7
2017-12-04T04:26:21.083Z,5.5
2017-12-04T04:28:17.812Z,5.2
2017-12-04T04:30:17.568Z,6
2017-12-04T04:32:18.319Z,6.4
2017-12-04T04:34:18.014Z,6
2017-12-04T04:36:17.768Z,7
2017-12-04T04:38:17.511Z,6.5
2017-12-04T04:40:17.269Z,6.6
2017-12-04T04:42:17.991Z,5.8
2017-12-04T04:44:17.731Z,5.7
2017-12-04T04:46:17.490Z,4.7
2017-12-04T04:48:18.224Z,5.2
2017-12-04T04:50:17.956Z,4.7
2017-12-04T04:52:17.698Z,5.3
2017-12-04T04:54:18.451Z,4.5
2017-12-04T04:56:17.168Z,5
2017-12-04T04:58:17.910Z,5
2017-12-04T05:00:17.641Z,5.1
2017-12-04T05:02:18.352Z,4.5
2017-12-04T05:04:18.107Z,4.3
2017-12-04T05:06:17.826Z,4.6
2017-12-04T05:08:17.556Z,4.2
2017-12-04T05:10:17.294Z,4.6
2017-12-04T05:12:18.013Z,4.6
2017-12-04T05:14:17.772Z,3.9
2017-12-04T05:16:17.496Z,5.2
2017-12-04T05:18:18.228Z,4.5
2017-12-04T05:20:17.970Z,4.5
2017-12-04T05:22:17.712Z,4.4
2017-12-04T05:24:18.436Z,4.3
2017-12-04T05:26:17.194Z,4.5
2017-12-04T05:28:17.895Z,4.6
2017-12-04T05:30:17.643Z,5.5
2017-12-04T05:32:18.370Z,4.4
2017-12-04T05:34:18.099Z,4
2017-12-04T05:36:16.839Z,4.8
2017-12-04T05:38:17.572Z,4
2017-12-04T05:40:17.316Z,4.4
2017-12-04T05:42:18.044Z,4.6
2017-12-04T05:44:17.768Z,3.5
2017-12-04T05:46:17.492Z,4.5
2017-12-04T05:48:18.232Z,4.2
2017-12-04T05:50:17.958Z,2.9
2017-12-04T05:52:17.691Z,3.7
2017-12-04T05:54:18.431Z,3.6
2017-12-04T05:56:17.171Z,3.4
2017-12-04T05:58:17.906Z,3.7
2017-12-04T06:00:17.616Z,3.7
2017-12-04T06:02:18.355Z,2.5
2017-12-04T06:04:18.092Z,3.4
2017-12-04T06:06:16.831Z,3.3
2017-12-04T06:08:17.576Z,3.2
2017-12-04T06:10:17.329Z,3.1
2017-12-04T06:12:18.063Z,3.2
2017-12-04T06:14:17.837Z,3
2017-12-04T06:16:17.576Z,2.8
2017-12-04T06:18:18.307Z,2.4
2017-12-04T06:20:18.069Z,2
2017-12-04T06:22:17.796Z,3.9
2017-12-04T06:24:17.576Z,2.7
2017-12-04T06:26:18.284Z,2.6
2017-12-04T06:28:18.040Z,2.5
2017-12-04T06:30:17.773Z,2
2017-12-04T06:32:17.519Z,2.5
2017-12-04T06:34:18.245Z,2.5
2017-12-04T06:36:16.973Z,2.6
2017-12-04T06:38:17.710Z,2.6
2017-12-04T06:40:17.469Z,1.9
2017-12-04T06:42:18.173Z,2.7
2017-12-04T06:44:17.909Z,2.1
2017-12-04T06:46:17.635Z,2.9
2017-12-04T06:48:18.364Z,1.7
2017-12-04T06:50:18.126Z,2.3
2017-12-04T06:52:17.841Z,3.3
2017-12-04T06:54:17.582Z,2.5
2017-12-04T06:56:17.311Z,1.8
2017-12-04T06:58:18.065Z,2.2
2017-12-04T07:00:17.804Z,1.6
2017-12-04T07:02:17.539Z,1.9
2017-12-04T07:04:18.275Z,1.9
2017-12-04T07:06:17.024Z,1.8
2017-12-04T07:08:17.766Z,2.5
2017-12-04T07:10:17.492Z,2
2017-12-04T07:12:18.226Z,1.7
2017-12-04T07:14:17.964Z,2.4
2017-12-04T07:16:17.724Z,2.5
2017-12-04T07:18:17.457Z,1.4
2017-12-04T07:20:18.188Z,1.4
2017-12-04T07:22:17.933Z,2.1
2017-12-04T07:24:17.653Z,1.7
2017-12-04T07:26:17.406Z,1.9
2017-12-04T07:28:18.136Z,2
2017-12-04T07:30:17.877Z,1.6
2017-12-04T07:32:17.605Z,1.8
2017-12-04T07:34:18.359Z,1.4
2017-12-04T07:36:17.079Z,1.5
2017-12-04T07:38:17.803Z,1.3
2017-12-04T07:40:17.537Z,2
2017-12-04T07:42:18.287Z,1.7
2017-12-04T07:44:18.012Z,1.5
2017-12-04T07:46:20.723Z,1.1
2017-12-04T07:48:17.467Z,1.6
2017-12-04T07:50:18.230Z,1.2
2017-12-04T07:52:17.952Z,1.6
2017-12-04T07:54:17.702Z,2.2
2017-12-04T07:56:17.452Z,1.2
2017-12-04T07:58:18.194Z,1.4
2017-12-04T08:00:17.953Z,1.5
2017-12-04T08:02:17.679Z,1.9
2017-12-04T08:04:18.412Z,1.5
2017-12-04T08:06:17.164Z,1.4
2017-12-04T08:08:17.899Z,1.8
2017-12-04T08:10:17.647Z,2.1
2017-12-04T08:12:18.370Z,2.2
2017-12-04T08:14:18.130Z,1.7
2017-12-04T08:16:16.861Z,1.8
2017-12-04T08:18:17.594Z,1.5
2017-12-04T08:20:18.339Z,1.9
2017-12-04T08:22:18.068Z,2
2017-12-04T08:24:17.804Z,2.1
2017-12-04T08:26:17.525Z,1.4
2017-12-04T08:28:18.266Z,1.7
2017-12-04T08:30:18.004Z,1.9
2017-12-04T08:32:17.745Z,1.5
2017-12-04T08:34:17.523Z,1.5
2017-12-04T08:36:21.210Z,1.3
2017-12-04T08:38:17.958Z,1.6
2017-12-04T08:40:17.677Z,1.3
2017-12-04T08:42:18.421Z,1.9
2017-12-04T08:44:18.141Z,1.8
2017-12-04T08:46:17.888Z,1.3
2017-12-04T08:48:17.638Z,1.8
2017-12-04T08:50:18.392Z,1.6
2017-12-04T08:52:18.112Z,1.5
2017-12-04T08:54:17.846Z,1.8
2017-12-04T08:56:17.583Z,2.3
2017-12-04T08:58:18.312Z,1.7
2017-12-04T09:00:18.027Z,1.6
2017-12-04T09:02:17.749Z,2
2017-12-04T09:04:17.483Z,0.9
2017-12-04T09:06:17.211Z,1.8
2017-12-04T09:08:17.944Z,1.9
2017-12-04T09:10:17.670Z,2
2017-12-04T09:12:18.404Z,1.9
2017-12-04T09:14:18.136Z,1.6
2017-12-04T09:16:17.858Z,1.4
2017-12-04T09:18:17.581Z,1.7
2017-12-04T09:20:18.322Z,1.4
2017-12-04T09:22:18.072Z,1.5
2017-12-04T09:24:17.838Z,1.7
2017-12-04T09:26:17.576Z,1.7
2017-12-04T09:28:18.322Z,1.4
2017-12-04T09:30:18.060Z,1
2017-12-04T09:32:17.816Z,2
2017-12-04T09:34:17.544Z,1.3
2017-12-04T09:36:17.272Z,1.8
2017-12-04T09:38:18.021Z,1.3
2017-12-04T09:40:17.754Z,1.3
2017-12-04T09:42:17.506Z,1.9
2017-12-04T09:44:18.251Z,1.8
2017-12-04T09:46:17.968Z,1.6
2017-12-04T09:48:17.714Z,1.7
2017-12-04T09:50:18.445Z,1.7
2017-12-04T09:52:18.179Z,2
2017-12-04T09:54:17.924Z,1.4
2017-12-04T09:56:17.708Z,1.5
2017-12-04T09:58:18.440Z,1.9
2017-12-04T10:00:18.161Z,1.4
2017-12-04T10:02:17.936Z,1
2017-12-04T10:04:17.650Z,1.3
2017-12-04T10:06:17.405Z,1.3
2017-12-04T10:08:18.152Z,1.4
2017-12-04T10:10:17.876Z,1.8
2017-12-04T10:12:17.651Z,1
2017-12-04T10:14:18.389Z,1.3
2017-12-04T10:16:18.152Z,1.5
2017-12-04T10:18:17.886Z,1.2
2017-12-04T10:20:17.638Z,1.4
2017-12-04T10:22:18.368Z,1.2
2017-12-04T10:24:18.133Z,1.4
2017-12-04T10:26:16.877Z,1.1
2017-12-04T10:28:17.628Z,1.1
2017-12-04T10:30:18.350Z,1.5
2017-12-04T10:32:18.120Z,1.4
2017-12-04T10:34:17.857Z,1.2
2017-12-04T10:36:17.598Z,1.5
2017-12-04T10:38:18.328Z,1
2017-12-04T10:40:17.092Z,1
2017-12-04T10:42:17.831Z,1.1
2017-12-04T10:44:17.565Z,0.9
2017-12-04T10:46:17.295Z,1.6
2017-12-04T10:48:18.057Z,1.7
2017-12-04T10:50:17.779Z,1
2017-12-04T10:52:17.508Z,1.3
2017-12-04T10:54:18.269Z,1.6
2017-12-04T10:56:18.006Z,1.4
2017-12-04T10:58:17.768Z,1.7
2017-12-04T11:00:17.501Z,1.3
2017-12-04T11:02:18.222Z,1.1
2017-12-04T11:04:17.977Z,0.9
2017-12-04T11:06:16.733Z,0.5
2017-12-04T11:08:17.473Z,0.3
2017-12-04T11:10:17.213Z,0.5
2017-12-04T11:12:17.977Z,0.4
2017-12-04T11:14:17.702Z,0.4
2017-12-04T11:16:17.506Z,0.5
2017-12-04T11:18:18.191Z,0.8
2017-12-04T11:20:17.908Z,0.5
2017-12-04T11:22:17.649Z,0.7
2017-12-04T11:24:18.388Z,0.6
2017-12-04T11:26:17.122Z,0.7
2017-12-04T11:28:17.836Z,0.5
2017-12-04T11:30:17.575Z,0.4
2017-12-04T11:32:18.291Z,0.6
2017-12-04T11:34:18.002Z,0.7
2017-12-04T11:36:17.726Z,0.4
2017-12-04T11:38:17.453Z,0.5
2017-12-04T11:40:17.153Z,0.7
2017-12-04T11:42:17.886Z,0.5
2017-12-04T11:44:17.601Z,0.5
2017-12-04T11:46:17.346Z,0.6
2017-12-04T11:48:18.057Z,0.5
2017-12-04T11:50:17.748Z,0.6
2017-12-04T11:52:17.480Z,0.6
2017-12-04T11:54:18.179Z,0.4
2017-12-04T11:56:16.865Z,0.7
2017-12-04T11:58:17.584Z,0.6
2017-12-04T12:00:18.280Z,0.6
2017-12-04T12:02:17.990Z,0.9
2017-12-04T12:04:17.674Z,0.5
2017-12-04T12:06:17.371Z,0.6
2017-12-04T12:08:18.082Z,0.6
2017-12-04T12:10:17.765Z,0.6
2017-12-04T12:12:17.461Z,0.5
2017-12-04T12:14:18.161Z,0.6
2017-12-04T12:16:16.863Z,0.7
2017-12-04T12:18:17.571Z,0.6
2017-12-04T12:20:18.259Z,0.8
2017-12-04T12:22:17.951Z,0.9
2017-12-04T12:24:17.655Z,0.6
2017-12-04T12:26:17.372Z,0.5
2017-12-04T12:28:18.098Z,0.6
2017-12-04T12:30:17.797Z,0.7
2017-12-04T12:32:17.500Z,0.9
2017-12-04T12:34:18.226Z,0.7
2017-12-04T12:36:16.925Z,0.7
2017-12-04T12:38:17.653Z,0.8
2017-12-04T12:40:17.373Z,1
2017-12-04T12:42:18.118Z,1
2017-12-04T12:44:17.846Z,0.7
2017-12-04T12:46:17.584Z,0.7
2017-12-04T12:48:18.300Z,1.3
2017-12-04T12:50:18.051Z,0.6
2017-12-04T12:52:17.807Z,1.1
2017-12-04T12:54:17.538Z,0.8
2017-12-04T12:56:17.279Z,1.2
2017-12-04T12:58:18.013Z,1
2017-12-04T13:00:17.777Z,0.7
2017-12-04T13:02:17.511Z,0.9
2017-12-04T13:04:18.275Z,1
2017-12-04T13:06:18.031Z,1.1
2017-12-04T13:08:17.746Z,0.6
2017-12-04T13:10:17.508Z,0.7
2017-12-04T13:12:21.282Z,0.7
2017-12-04T13:14:21.039Z,0.7
2017-12-04T13:16:17.810Z,1.1
2017-12-04T13:18:17.613Z,0.9
2017-12-04T13:20:18.375Z,1.2
2017-12-04T13:22:21.149Z,1.1
2017-12-04T13:24:17.942Z,0.9
2017-12-04T13:26:16.689Z,0.8
2017-12-04T13:28:18.460Z,0.8
2017-12-04T13:30:18.220Z,1.2
2017-12-04T13:32:17.973Z,1.2
2017-12-04T13:34:17.743Z,0.8
2017-12-04T13:36:17.495Z,1.5
2017-12-04T13:38:18.270Z,1.1
2017-12-04T13:40:17.029Z,0.5
2017-12-04T13:42:17.780Z,0.8
2017-12-04T13:44:17.519Z,1.1
2017-12-04T13:46:17.297Z,1
2017-12-04T13:48:18.048Z,0.9
2017-12-04T13:50:17.808Z,0.8
2017-12-04T13:52:17.548Z,0.9
2017-12-04T13:54:18.298Z,1.2
2017-12-04T13:56:17.046Z,0.9
2017-12-04T13:58:17.819Z,0.8
2017-12-04T14:00:17.594Z,1
2017-12-04T14:02:18.345Z,0.9
2017-12-04T14:04:18.084Z,0.9
2017-12-04T14:06:17.861Z,1
2017-12-04T14:08:17.625Z,1.1
2017-12-04T14:10:17.347Z,0.8
2017-12-04T14:12:18.092Z,0.8
2017-12-04T14:14:17.846Z,0.9
2017-12-04T14:16:17.597Z,0.8
2017-12-04T14:18:18.324Z,1.2
2017-12-04T14:20:18.080Z,1.1
2017-12-04T14:22:17.830Z,0.7
2017-12-04T14:24:17.578Z,0.9
2017-12-04T14:26:17.310Z,1.2
2017-12-04T14:28:18.045Z,1.1
2017-12-04T14:30:17.773Z,1.2
2017-12-04T14:32:17.513Z,0.8
2017-12-04T14:34:18.253Z,0.9
2017-12-04T14:36:17.975Z,1.1
2017-12-04T14:38:17.714Z,0.9
2017-12-04T14:40:17.447Z,1.2
2017-12-04T14:42:18.218Z,1.2
2017-12-04T14:44:17.960Z,0.9
2017-12-04T14:46:16.712Z,1.3
2017-12-04T14:48:18.452Z,0.8
2017-12-04T14:50:18.196Z,1.1
2017-12-04T14:52:17.932Z,0.8
2017-12-04T14:54:17.646Z,0.7
2017-12-04T14:56:17.380Z,1.9
2017-12-04T14:58:18.128Z,1.1
2017-12-04T15:00:17.874Z,0.6
2017-12-04T15:02:17.607Z,1.1
2017-12-04T15:04:18.342Z,1
2017-12-04T15:06:17.093Z,1
2017-12-04T15:08:17.806Z,1.2
2017-12-04T15:10:17.541Z,1.5
2017-12-04T15:12:18.295Z,1.4
2017-12-04T15:14:18.060Z,3.4
2017-12-04T15:16:16.808Z,2.1
2017-12-04T15:18:17.535Z,2
2017-12-04T15:20:18.272Z,1.6
2017-12-04T15:22:17.999Z,1.4
2017-12-04T15:24:17.743Z,1.3
2017-12-04T15:26:21.460Z,1.4
2017-12-04T15:28:18.205Z,1.5
2017-12-04T15:30:17.934Z,1.1
2017-12-04T15:32:17.676Z,1.5
2017-12-04T15:34:18.414Z,1.1
2017-12-04T15:36:17.151Z,1.4
2017-12-04T15:38:17.877Z,0.8
2017-12-04T15:40:17.613Z,1.5
2017-12-04T15:42:18.351Z,1.2
2017-12-04T15:44:18.072Z,1
2017-12-04T15:46:16.816Z,1.4
2017-12-04T15:48:17.544Z,1.1
2017-12-04T15:50:18.289Z,0.9
2017-12-04T15:52:18.023Z,1.1
2017-12-04T15:54:17.750Z,1.1
2017-12-04T15:56:17.504Z,1.2
2017-12-04T15:58:18.223Z,0.8
2017-12-04T16:00:17.965Z,1.1
2017-12-04T16:02:17.693Z,1
2017-12-04T16:04:18.423Z,1.3
2017-12-04T16:06:17.174Z,0.7
2017-12-04T16:08:17.907Z,1
2017-12-04T16:10:17.635Z,0.8
2017-12-04T16:12:18.414Z,0.8
2017-12-04T16:14:18.145Z,0.8
2017-12-04T16:16:17.878Z,0.9
2017-12-04T16:18:17.577Z,1.2
2017-12-04T16:20:18.292Z,0.7
2017-12-04T16:22:18.034Z,1.1
2017-12-04T16:24:17.768Z,0.9
2017-12-04T16:26:17.478Z,1.3
2017-12-04T16:28:18.238Z,0.9
2017-12-04T16:30:17.942Z,1.2
2017-12-04T16:32:17.676Z,1.2
2017-12-04T16:34:18.399Z,5
2017-12-04T16:36:18.136Z,5.9
2017-12-04T16:38:17.868Z,4.6
2017-12-04T16:40:17.578Z,2.9
2017-12-04T16:42:18.307Z,3.5
2017-12-04T16:44:18.077Z,2.6
2017-12-04T16:46:17.794Z,2.8
2017-12-04T16:48:17.541Z,2.4
2017-12-04T16:50:18.245Z,2.6
2017-12-04T16:52:17.988Z,2.1
2017-12-04T16:54:17.703Z,2
2017-12-04T16:56:17.447Z,2.2
2017-12-04T16:58:18.165Z,2.5
2017-12-04T17:00:17.877Z,2.8
2017-12-04T17:02:17.600Z,2.6
2017-12-04T17:04:18.341Z,2.3
2017-12-04T17:06:17.082Z,2.3
2017-12-04T17:08:17.787Z,1.9
2017-12-04T17:10:17.527Z,1.9
2017-12-04T17:12:18.258Z,1.6
2017-12-04T17:14:17.970Z,1.7
2017-12-04T17:16:16.729Z,1.4
2017-12-04T17:18:17.420Z,1.3
2017-12-04T17:20:18.167Z,1.4
2017-12-04T17:22:17.871Z,1.8
2017-12-04T17:24:17.610Z,1.2
2017-12-04T17:26:21.331Z,1.3
2017-12-04T17:28:18.067Z,1.9
2017-12-04T17:30:17.817Z,1.2
2017-12-04T17:32:17.547Z,1.2
2017-12-04T17:34:18.266Z,1.1
2017-12-04T17:36:16.997Z,1.2
2017-12-04T17:38:17.719Z,1.2
2017-12-04T17:40:17.420Z,1.4
2017-12-04T17:42:18.158Z,1.4
2017-12-04T17:44:17.871Z,1.2
2017-12-04T17:46:17.576Z,1.2
2017-12-04T17:48:18.309Z,1.3
2017-12-04T17:50:18.034Z,1.6
2017-12-04T17:52:17.743Z,1.5
2017-12-04T17:54:17.466Z,1.5
2017-12-04T17:56:17.185Z,1.4
2017-12-04T17:58:17.905Z,1.5
2017-12-04T18:00:17.621Z,1.2
2017-12-04T18:02:18.339Z,1.4
2017-12-04T18:04:18.093Z,1.8
2017-12-04T18:06:17.810Z,1.5
2017-12-04T18:08:17.560Z,1.8
2017-12-04T18:10:17.278Z,1.4
2017-12-04T18:12:17.994Z,1.6
2017-12-04T18:14:17.722Z,1.9
2017-12-04T18:16:17.473Z,1.7
2017-12-04T18:18:18.164Z,1.3
2017-12-04T18:20:17.892Z,1.7
2017-12-04T18:22:17.617Z,2
2017-12-04T18:24:18.369Z,1.8
2017-12-04T18:26:21.050Z,1.3
2017-12-04T18:28:17.786Z,1.4
2017-12-04T18:30:17.516Z,1.8
2017-12-04T18:32:18.268Z,1.7
2017-12-04T18:34:17.975Z,1.8
2017-12-04T18:36:17.694Z,1.5
2017-12-04T18:38:18.406Z,1.4
2017-12-04T18:40:17.146Z,1.9
2017-12-04T18:42:17.871Z,1.8
2017-12-04T18:44:17.596Z,1.7
2017-12-04T18:48:17.338Z,1.5
2017-12-04T18:50:17.752Z,1.5
2017-12-04T18:52:17.479Z,1.7
2017-12-04T18:54:18.199Z,1.7
2017-12-04T18:56:17.930Z,1.6
2017-12-04T18:58:17.653Z,1.8
2017-12-04T19:00:18.388Z,1.9
2017-12-04T19:02:18.085Z,1.9
2017-12-04T19:04:17.822Z,2
2017-12-04T19:06:17.538Z,1.8
2017-12-04T19:08:18.269Z,1.8
2017-12-04T19:10:16.983Z,1.8
2017-12-04T19:12:17.716Z,1.9
2017-12-04T19:14:18.429Z,1.8
2017-12-04T19:16:17.162Z,1.6
2017-12-04T19:18:17.898Z,1.8
2017-12-04T19:20:17.623Z,2.1
2017-12-04T19:22:18.375Z,2.9
2017-12-04T19:24:18.091Z,2.3
2017-12-04T19:26:17.797Z,2.6
2017-12-04T19:28:17.509Z,1.8
2017-12-04T19:30:18.184Z,1.8
2017-12-04T19:32:17.888Z,2.2
2017-12-04T19:34:17.586Z,1.7
2017-12-04T19:36:17.325Z,1.4
2017-12-04T19:38:18.021Z,1.4
2017-12-04T19:40:17.761Z,1.2
2017-12-04T19:42:17.471Z,1.5
2017-12-04T19:44:18.188Z,2
2017-12-04T19:46:17.942Z,1.8
2017-12-04T19:48:17.666Z,2.1
2017-12-04T19:50:18.396Z,1.6
2017-12-04T19:52:18.134Z,1.2
2017-12-04T19:54:17.851Z,1.5
2017-12-04T19:56:17.565Z,1.7
2017-12-04T19:58:18.295Z,1.4
2017-12-04T20:00:18.038Z,1.5
2017-12-04T20:02:17.754Z,1.4
2017-12-04T20:04:17.482Z,2
2017-12-04T20:06:17.228Z,2
2017-12-04T20:08:17.944Z,1.5
2017-12-04T20:10:17.673Z,1.6
2017-12-04T20:12:18.401Z,1.5
2017-12-04T20:14:18.122Z,1.5
2017-12-04T20:16:16.842Z,1.6
2017-12-04T20:18:17.544Z,1.5
2017-12-04T20:20:18.275Z,1.6
2017-12-04T20:22:17.999Z,1.1
2017-12-04T20:24:17.740Z,2
2017-12-04T20:26:17.456Z,2
2017-12-04T20:28:18.189Z,1.3
2017-12-04T20:30:17.898Z,1.9
2017-12-04T20:32:17.604Z,1.9
2017-12-04T20:34:18.333Z,1.5
2017-12-04T20:36:18.063Z,1.9
2017-12-04T20:38:17.804Z,1.1
2017-12-04T20:40:17.487Z,1.5
2017-12-04T20:42:18.213Z,1.4
2017-12-04T20:44:17.940Z,1.4
2017-12-04T20:46:17.644Z,1.4
2017-12-04T20:48:18.400Z,1.8
2017-12-04T20:50:18.109Z,1.7
2017-12-04T20:52:17.824Z,1.5
2017-12-04T20:54:17.560Z,1.4
2017-12-04T20:56:17.285Z,1.5
2017-12-04T20:58:17.999Z,2
2017-12-04T21:00:17.700Z,1.8
2017-12-04T21:02:18.437Z,1.8
2017-12-04T21:04:18.145Z,1.3
2017-12-04T21:06:16.869Z,1.9
2017-12-04T21:08:17.576Z,1.1
2017-12-04T21:10:17.317Z,1.8
2017-12-04T21:12:18.054Z,1.9
2017-12-04T21:14:17.757Z,1.4
2017-12-04T21:16:17.470Z,1.3
2017-12-04T21:18:18.187Z,1.6
2017-12-04T21:20:17.897Z,1.9
2017-12-04T21:22:17.626Z,1.7
2017-12-04T21:24:18.348Z,1.7
2017-12-04T21:26:17.063Z,1.4
2017-12-04T21:28:17.796Z,1.9
2017-12-04T21:30:17.507Z,1.6
2017-12-04T21:32:18.219Z,2.4
2017-12-04T21:34:17.949Z,2.6
2017-12-04T21:36:17.655Z,2
2017-12-04T21:38:18.376Z,2.5
2017-12-04T21:40:17.105Z,2
2017-12-04T21:42:17.811Z,2.1
2017-12-04T21:44:17.560Z,2.2
2017-12-04T21:46:17.258Z,1.8
2017-12-04T21:48:17.963Z,1.8
2017-12-04T21:50:17.693Z,1.8
2017-12-04T21:52:18.420Z,1.7
2017-12-04T21:54:18.133Z,1.7
2017-12-04T21:56:17.863Z,1.7
2017-12-04T21:58:17.570Z,1.5
2017-12-04T22:00:18.290Z,1.8
2017-12-04T22:02:18.027Z,1.7
2017-12-04T22:04:17.752Z,1.3
2017-12-04T22:06:17.471Z,1.5
2017-12-04T22:08:18.186Z,1.9
2017-12-04T22:10:17.902Z,1.9
2017-12-04T22:12:17.631Z,1.8
2017-12-04T22:14:18.346Z,2.3
2017-12-04T22:16:17.091Z,2
2017-12-04T22:18:17.806Z,2
2017-12-04T22:20:17.529Z,1.6
2017-12-04T22:22:18.265Z,1.8
2017-12-04T22:24:17.999Z,1.7
2017-12-04T22:26:17.725Z,1.8
2017-12-04T22:28:17.443Z,1.9
2017-12-04T22:30:18.172Z,1.6
2017-12-04T22:32:17.915Z,2.3
2017-12-04T22:34:17.630Z,1.8
2017-12-04T22:36:17.327Z,1.6
2017-12-04T22:38:18.038Z,2.5
2017-12-04T22:40:17.754Z,2.1
2017-12-04T22:42:17.461Z,2.1
2017-12-04T22:44:18.179Z,2
2017-12-04T22:46:16.880Z,1.6
2017-12-04T22:48:17.617Z,1.7
2017-12-04T22:50:18.306Z,1.7
2017-12-04T22:52:18.032Z,2.1
2017-12-04T22:54:17.747Z,2.2
2017-12-04T22:56:17.453Z,2.2
2017-12-04T22:58:18.171Z,2.4
2017-12-04T23:00:17.880Z,2.2
2017-12-04T23:02:17.610Z,1.8
2017-12-04T23:04:18.362Z,1.9
2017-12-04T23:06:18.053Z,1.8
2017-12-04T23:08:17.806Z,1.6
2017-12-04T23:10:17.540Z,1.5
2017-12-04T23:12:18.283Z,1.6
2017-12-04T23:14:18.014Z,1.8
2017-12-04T23:16:16.733Z,1.8
2017-12-04T23:18:17.466Z,2
2017-12-04T23:20:18.193Z,2.2
2017-12-04T23:22:17.915Z,1.6
2017-12-04T23:24:17.669Z,1.7
2017-12-04T23:26:17.391Z,1.9
2017-12-04T23:28:18.127Z,2.1
2017-12-04T23:30:17.870Z,1.8
2017-12-04T23:32:17.599Z,1.8
2017-12-04T23:34:18.317Z,2.1
2017-12-04T23:36:18.052Z,1.4
2017-12-04T23:38:17.792Z,1.5
2017-12-04T23:40:17.514Z,2.1
2017-12-04T23:42:18.260Z,1.6
2017-12-04T23:44:17.994Z,2.3
2017-12-04T23:46:16.738Z,1.4
2017-12-04T23:48:17.466Z,2.6
2017-12-04T23:50:18.223Z,2.1
2017-12-04T23:52:17.965Z,1.8
2017-12-04T23:54:17.720Z,2.3
2017-12-04T23:56:17.455Z,2
2017-12-04T23:58:18.191Z,1.6
